Time;durP1;ratioP1;P1;durP2;ratioP2;P2;SDS_P1;SDS_P2;PMS_P1;PMS_P2;Temp;Humidity;BMP_temperature;BMP_pressure;BME280_temperature;BME280_humidity;BME280_pressure;Samples;Min_cycle;Max_cycle;Signal;HPM_P1;HPM_P2
2021/11/08 00:01:54;;;;;;;24.27;16.70;;;;;;;8.36;70.19;99010.22;1754796;81;21000;-38
2021/11/08 00:04:20;;;;;;;29.37;18.40;;;;;;;8.32;70.13;99008.58;1755152;81;21079;-39
2021/11/08 00:06:50;;;;;;;22.22;16.48;;;;;;;8.28;70.22;99006.53;1760571;80;21487;-39
2021/11/08 00:09:16;;;;;;;21.33;16.00;;;;;;;8.27;70.26;99002.86;1778970;80;21510;-38
2021/11/08 00:11:44;;;;;;;25.15;16.57;;;;;;;8.29;70.25;98994.63;1775962;80;21031;-38
2021/11/08 00:14:18;;;;;;;24.10;17.25;;;;;;;8.31;70.25;98996.20;1786203;80;20987;-39
2021/11/08 00:16:58;;;;;;;23.35;16.93;;;;;;;8.25;70.33;99000.50;1786187;80;21083;-38
2021/11/08 00:19:43;;;;;;;25.68;17.37;;;;;;;8.21;70.43;98995.59;1781207;80;21918;-38
2021/11/08 00:21:56;;;;;;;22.62;15.32;;;;;;;7.86;70.62;98944.28;1759349;80;20933;-38
2021/11/08 00:24:24;;;;;;;24.05;15.95;;;;;;;8.24;70.57;98995.44;1755924;80;21596;-38
2021/11/08 00:26:52;;;;;;;23.42;15.78;;;;;;;8.31;70.38;98997.56;1748422;81;20940;-39
2021/11/08 00:29:20;;;;;;;28.00;16.97;;;;;;;8.33;70.34;98985.25;1776529;80;21051;-38
2021/11/08 00:31:46;;;;;;;26.65;16.95;;;;;;;8.33;70.33;99000.11;1785562;80;21120;-38
2021/11/08 00:34:14;;;;;;;24.00;17.25;;;;;;;8.31;70.31;98996.99;1785899;80;21011;-38
2021/11/08 00:36:42;;;;;;;23.87;16.37;;;;;;;8.29;70.35;99002.73;1785899;80;21012;-38
2021/11/08 00:39:09;;;;;;;24.82;16.55;;;;;;;8.28;70.35;98999.00;1773762;80;21087;-38
2021/11/08 00:41:36;;;;;;;23.70;16.00;;;;;;;8.31;70.32;99007.01;1764736;80;21004;-38
2021/11/08 00:44:04;;;;;;;25.43;17.40;;;;;;;8.31;70.28;98998.91;1785241;80;21530;-38
2021/11/08 00:46:31;;;;;;;26.05;16.85;;;;;;;8.27;70.26;98996.89;1785859;80;21055;-38
2021/11/08 00:48:57;;;;;;;22.95;16.23;;;;;;;8.20;70.32;99006.17;1785065;80;21027;-38
2021/11/08 00:51:24;;;;;;;25.23;17.30;;;;;;;8.16;70.49;98996.43;1785298;80;21026;-37
2021/11/08 00:53:51;;;;;;;24.45;16.42;;;;;;;8.11;70.67;99002.88;1785966;80;21024;-38
2021/11/08 00:56:21;;;;;;;25.43;16.77;;;;;;;8.14;70.70;98998.12;1785633;80;21070;-38
2021/11/08 00:58:48;;;;;;;38.95;17.07;;;;;;;8.17;70.63;99001.48;1785009;80;21006;-38
2021/11/08 01:01:23;;;;;;;23.92;17.17;;;;;;;8.16;70.62;99001.27;1779762;80;21078;-38
2021/11/08 01:03:47;;;;;;;26.65;17.75;;;;;;;8.13;70.63;99004.65;1778471;79;21055;-38
2021/11/08 01:06:16;;;;;;;25.43;17.73;;;;;;;8.07;70.71;99004.73;1775565;80;21122;-38
2021/11/08 01:08:43;;;;;;;28.40;15.70;;;;;;;8.04;70.83;98998.66;1786278;80;21548;-38
2021/11/08 01:11:11;;;;;;;27.32;16.42;;;;;;;8.06;70.73;99005.06;1780414;80;21653;-38
2021/11/08 01:13:39;;;;;;;25.10;16.90;;;;;;;8.04;70.72;99004.05;1755404;81;20984;-38
2021/11/08 01:16:07;;;;;;;24.07;17.35;;;;;;;8.01;70.68;98991.27;1772421;80;21019;-41
2021/11/08 01:18:34;;;;;;;22.82;16.75;;;;;;;7.97;70.75;98986.37;1767145;80;20987;-38
2021/11/08 01:21:01;;;;;;;26.10;16.23;;;;;;;7.94;70.73;98984.34;1755692;80;21139;-38
2021/11/08 01:23:29;;;;;;;20.23;15.10;;;;;;;7.92;70.70;98988.55;1785351;80;21079;-38
2021/11/08 01:26:18;;;;;;;25.30;16.12;;;;;;;7.92;70.71;98990.68;1786131;80;21031;-38
2021/11/08 01:28:37;;;;;;;25.57;17.12;;;;;;;7.96;70.60;98988.05;1781369;80;20984;-38
2021/11/08 01:31:00;;;;;;;24.92;16.82;;;;;;;7.93;70.55;98994.95;1772667;80;21023;-38
2021/11/08 01:33:26;;;;;;;25.45;17.32;;;;;;;7.88;70.51;98991.17;1766265;80;21091;-38
2021/11/08 01:36:07;;;;;;;24.55;16.25;;;;;;;7.82;70.55;98987.16;1783883;78;20958;-38
2021/11/08 01:38:26;;;;;;;24.05;16.75;;;;;;;7.82;70.55;98977.72;1806688;78;20980;-38
2021/11/08 01:40:54;;;;;;;25.35;16.73;;;;;;;7.82;70.41;98982.55;1786050;80;21051;-38
2021/11/08 01:43:21;;;;;;;24.70;16.75;;;;;;;7.83;70.36;98996.83;1793062;78;21429;-38
2021/11/08 01:45:47;;;;;;;24.50;17.45;;;;;;;7.77;70.38;98983.38;1795776;79;21156;-38
2021/11/08 01:48:14;;;;;;;22.60;16.55;;;;;;;7.73;70.46;98991.96;1811478;78;21035;-38
2021/11/08 01:50:41;;;;;;;23.83;16.55;;;;;;;7.68;70.44;98987.61;1784969;80;21486;-38
2021/11/08 01:53:08;;;;;;;25.40;16.05;;;;;;;7.62;70.49;98980.13;1785903;80;21018;-38
2021/11/08 01:55:35;;;;;;;26.90;17.35;;;;;;;7.60;70.47;98980.46;1783974;80;21550;-38
2021/11/08 01:58:02;;;;;;;25.77;15.95;;;;;;;7.58;70.49;98989.48;1776001;80;21121;-38
2021/11/08 02:00:29;;;;;;;25.48;18.35;;;;;;;7.50;70.58;98981.56;1754784;81;21028;-38
2021/11/08 02:02:56;;;;;;;30.57;18.80;;;;;;;7.43;70.68;98980.25;1754997;81;21008;-38
2021/11/08 02:05:22;;;;;;;24.57;17.17;;;;;;;7.37;70.76;98978.94;1755083;81;21052;-38
2021/11/08 02:07:49;;;;;;;25.12;16.15;;;;;;;7.35;70.72;98985.82;1760122;80;21067;-38
2021/11/08 02:10:16;;;;;;;26.02;16.87;;;;;;;7.35;70.71;98977.17;1779457;78;21724;-38
2021/11/08 02:12:45;;;;;;;22.35;16.67;;;;;;;7.34;70.65;98968.86;1784281;80;20963;-38
2021/11/08 02:15:15;;;;;;;23.62;17.07;;;;;;;7.29;70.71;98974.50;1779775;80;21105;-38
2021/11/08 02:17:44;;;;;;;25.88;17.60;;;;;;;7.25;70.74;98968.80;1781689;78;21518;-39
2021/11/08 02:20:19;;;;;;;25.45;17.73;;;;;;;7.20;70.76;98966.36;1719975;82;21572;-38
2021/11/08 02:22:45;;;;;;;25.72;16.27;;;;;;;7.16;70.81;98973.02;1699130;84;21780;-38
2021/11/08 02:25:12;;;;;;;21.77;15.68;;;;;;;7.13;70.86;98972.91;1727695;83;21012;-38
2021/11/08 02:27:42;;;;;;;23.98;17.12;;;;;;;7.13;70.78;98980.99;1726178;83;21479;-38
2021/11/08 02:30:10;;;;;;;24.70;16.00;;;;;;;7.13;70.75;98985.03;1698677;84;20972;-38
2021/11/08 02:33:30;;;;;;;25.90;18.32;;;;;;;7.12;70.84;98983.47;1864236;76;22523;-38
2021/11/08 02:36:00;;;;;;;29.72;18.17;;;;;;;6.96;70.99;98988.28;1860064;77;21517;-38
2021/11/08 02:38:30;;;;;;;22.32;16.75;;;;;;;6.88;71.18;98995.15;1857151;77;21105;-38
2021/11/08 02:40:59;;;;;;;23.47;16.23;;;;;;;6.86;71.28;98997.42;1858351;77;21522;-38
2021/11/08 02:43:27;;;;;;;24.85;15.95;;;;;;;6.84;71.36;98990.23;1859923;77;20920;-38
2021/11/08 02:46:40;;;;;;;24.55;16.87;;;;;;;6.82;71.45;98994.63;1859417;76;20916;-38
2021/11/08 02:48:28;;;;;;;24.30;17.65;;;;;;;6.75;71.70;98988.25;1831715;77;20944;-39
2021/11/08 02:51:06;;;;;;;25.20;17.98;;;;;;;6.69;71.92;98982.88;1857930;77;21124;-38
2021/11/08 02:53:26;;;;;;;20.50;16.48;;;;;;;6.65;72.03;98983.34;1858038;77;20997;-38
2021/11/08 02:55:53;;;;;;;21.73;16.35;;;;;;;6.60;72.22;98977.64;1859926;77;21474;-38
2021/11/08 02:58:21;;;;;;;25.60;16.77;;;;;;;6.62;72.27;98986.73;1819987;78;20970;-38
2021/11/08 03:00:48;;;;;;;23.25;16.95;;;;;;;6.64;72.19;98992.55;1840705;78;21681;-38
2021/11/08 03:03:15;;;;;;;24.57;17.60;;;;;;;6.61;72.29;98985.94;1840332;78;21106;-38
2021/11/08 03:05:42;;;;;;;22.30;16.97;;;;;;;6.59;72.38;98979.31;1840556;78;21634;-38
2021/11/08 03:08:09;;;;;;;22.42;15.90;;;;;;;6.57;72.43;98977.55;1849923;76;21007;-38
2021/11/08 03:10:38;;;;;;;23.05;15.83;;;;;;;6.59;72.44;98979.31;1859367;77;21016;-38
2021/11/08 03:13:16;;;;;;;21.52;15.08;;;;;;;6.66;72.37;98987.61;1855906;77;21012;-38
2021/11/08 03:15:52;;;;;;;22.82;15.45;;;;;;;6.73;72.28;98979.74;1857968;77;21122;-38
2021/11/08 03:18:15;;;;;;;22.25;16.42;;;;;;;6.73;72.25;98976.45;1854070;76;21016;-38
2021/11/08 03:20:37;;;;;;;22.48;15.40;;;;;;;6.73;72.21;98976.45;1822676;77;20910;-38
2021/11/08 03:23:07;;;;;;;22.93;15.98;;;;;;;6.74;72.26;98974.55;1859557;77;20946;-38
2021/11/08 03:28:02;;;;;;;23.90;15.15;;;;;;;6.80;72.17;98972.63;1857068;77;21883;-38
2021/11/08 03:30:41;;;;;;;19.67;14.15;;;;;;;6.86;72.14;98974.52;1859622;77;21447;-38
2021/11/08 03:33:09;;;;;;;22.93;15.15;;;;;;;6.82;72.23;98974.98;1858503;77;20941;-38
2021/11/08 03:35:37;;;;;;;21.25;15.23;;;;;;;6.81;72.29;98970.72;1860220;77;21496;-38
2021/11/08 03:38:06;;;;;;;21.17;16.70;;;;;;;6.77;72.37;98978.71;1852082;77;20980;-38
2021/11/08 03:40:37;;;;;;;22.73;14.68;;;;;;;6.76;72.46;98973.09;1858725;77;21071;-38
2021/11/08 03:43:05;;;;;;;17.52;14.43;;;;;;;6.81;72.37;98970.72;1859662;77;21514;-39
2021/11/08 03:45:33;;;;;;;22.07;15.70;;;;;;;6.86;72.27;98975.86;1858155;77;20991;-39
2021/11/08 03:48:00;;;;;;;23.57;16.00;;;;;;;6.85;72.22;98966.20;1852458;77;21026;-38
2021/11/08 03:50:27;;;;;;;20.90;15.78;;;;;;;6.84;72.23;98967.33;1857175;77;21008;-38
2021/11/08 03:52:54;;;;;;;20.35;14.83;;;;;;;6.83;72.21;98966.54;1854860;77;21981;-38
2021/11/08 03:55:21;;;;;;;21.50;14.95;;;;;;;6.83;72.04;98960.36;1855102;77;21011;-38
2021/11/08 03:57:48;;;;;;;19.42;14.58;;;;;;;6.83;71.86;98967.89;1854062;77;20982;-38
2021/11/08 04:00:16;;;;;;;20.43;15.15;;;;;;;6.84;71.83;98965.98;1852508;77;21000;-38
2021/11/08 04:02:43;;;;;;;20.45;15.32;;;;;;;6.80;71.83;98964.55;1855458;77;21024;-38
2021/11/08 04:05:11;;;;;;;22.55;16.07;;;;;;;6.74;71.88;98959.73;1858804;77;22033;-38
2021/11/08 04:07:38;;;;;;;19.62;15.10;;;;;;;6.69;71.98;98966.71;1854967;77;20918;-38
2021/11/08 04:10:06;;;;;;;20.60;14.55;;;;;;;6.65;72.03;98959.10;1845751;77;21000;-38
2021/11/08 04:12:34;;;;;;;21.87;15.30;;;;;;;6.66;72.04;98962.02;1845351;77;20906;-38
2021/11/08 04:15:06;;;;;;;23.07;14.95;;;;;;;6.68;71.99;98971.91;1845338;77;21008;-38
2021/11/08 04:17:33;;;;;;;21.17;15.13;;;;;;;6.65;72.15;98973.92;1839885;76;21040;-38
2021/11/08 04:20:01;;;;;;;20.57;15.13;;;;;;;6.60;72.22;98982.23;1816171;78;21796;-38
2021/11/08 04:22:28;;;;;;;21.85;14.93;;;;;;;6.55;72.26;98988.09;1829196;77;21467;-38
2021/11/08 04:24:56;;;;;;;19.62;14.03;;;;;;;6.53;72.36;98984.94;1858997;77;21011;-38
2021/11/08 04:27:23;;;;;;;20.80;14.73;;;;;;;6.54;72.40;98990.55;1854408;75;21525;-38
2021/11/08 04:29:49;;;;;;;21.20;15.08;;;;;;;6.55;72.22;98996.73;1864725;75;21087;-38
2021/11/08 04:32:17;;;;;;;24.55;15.25;;;;;;;6.51;72.29;98988.55;1858674;76;20877;-38
2021/11/08 04:35:01;;;;;;;21.48;14.65;;;;;;;6.44;72.36;98982.95;1857009;77;21007;-38
2021/11/08 04:42:50;;;;;;;20.72;15.00;;;;;;;6.43;72.32;98981.41;1842047;75;21171;-39
2021/11/08 05:30:21;;;;;;;21.12;14.28;;;;;;;5.90;73.28;99030.14;1862169;75;21317;-38
2021/11/08 05:32:52;;;;;;;21.30;14.40;;;;;;;5.86;73.38;99015.18;1855052;76;20982;-38
2021/11/08 05:35:20;;;;;;;17.30;13.65;;;;;;;5.92;73.40;99029.23;1849679;77;21126;-38
2021/11/08 05:37:46;;;;;;;20.82;14.25;;;;;;;5.95;73.38;99029.92;1853390;76;21005;-38
2021/11/08 05:40:23;;;;;;;22.05;15.35;;;;;;;5.95;73.35;99035.30;1847805;76;20955;-39
2021/11/08 05:42:48;;;;;;;21.48;14.53;;;;;;;5.87;73.39;99028.10;1786680;78;20927;-39
2021/11/08 05:45:16;;;;;;;18.98;14.58;;;;;;;5.93;73.38;99050.98;1789375;79;21582;-38
2021/11/08 05:47:44;;;;;;;20.88;14.25;;;;;;;5.96;73.40;99059.72;1850003;77;21786;-38
2021/11/08 05:50:14;;;;;;;22.90;14.30;;;;;;;6.00;73.33;99053.91;1837735;77;22405;-38
2021/11/08 05:52:42;;;;;;;19.92;14.43;;;;;;;6.01;73.31;99061.63;1783772;80;21012;-38
2021/11/08 05:55:10;;;;;;;20.68;14.28;;;;;;;6.00;73.36;99062.74;1791039;79;20937;-38
2021/11/08 05:57:46;;;;;;;19.37;14.40;;;;;;;5.99;73.50;99062.55;1786029;80;21034;-38
2021/11/08 06:50:05;;;;;;;19.60;14.28;;;;;;;7.16;72.16;99095.68;1778059;79;21090;-39
2021/11/08 06:52:33;;;;;;;16.20;12.55;;;;;;;7.18;72.10;99105.54;1791761;79;21508;-39
2021/11/08 06:55:05;;;;;;;18.52;13.38;;;;;;;7.23;71.93;99099.12;1799904;79;21140;-39
2021/11/08 06:57:35;;;;;;;18.95;13.90;;;;;;;7.27;71.72;99099.99;1780294;80;21020;-39
2021/11/08 07:00:00;;;;;;;13.40;10.15;;;;;;;7.28;71.44;99095.61;1781172;79;20961;-39
2021/11/08 07:02:27;;;;;;;19.90;13.65;;;;;;;7.28;71.58;99101.01;1787435;79;21080;-39
2021/11/08 07:04:54;;;;;;;20.40;13.32;;;;;;;7.28;71.55;99098.31;1778809;80;21083;-39
2021/11/08 07:07:21;;;;;;;16.25;12.30;;;;;;;7.32;71.56;99103.80;1794291;79;21067;-39
2021/11/08 07:09:48;;;;;;;17.37;12.43;;;;;;;7.34;71.44;99091.55;1779286;79;21042;-41
2021/11/08 07:12:15;;;;;;;16.65;12.70;;;;;;;7.37;71.42;99103.55;1781047;79;21575;-40
2021/11/08 07:14:42;;;;;;;17.62;12.65;;;;;;;7.39;71.53;99102.66;1793170;80;21044;-40
2021/11/08 07:17:08;;;;;;;17.20;13.18;;;;;;;7.42;71.38;99103.30;1792276;79;21111;-40
2021/11/08 07:19:35;;;;;;;27.40;18.57;;;;;;;7.47;71.59;99109.02;1785364;79;21126;-41
2021/11/08 07:22:02;;;;;;;23.83;15.05;;;;;;;7.49;71.43;99114.30;1798422;79;21029;-41
2021/11/08 07:24:28;;;;;;;23.00;15.50;;;;;;;7.53;71.24;99111.69;1777648;79;21136;-40
2021/11/08 07:26:55;;;;;;;17.75;13.13;;;;;;;7.59;71.05;99125.16;1779253;79;21036;-34
2021/11/08 07:29:22;;;;;;;18.20;13.05;;;;;;;7.69;71.15;99109.81;1794024;79;21050;-34
2021/11/08 07:31:49;;;;;;;20.52;13.10;;;;;;;7.80;71.16;99113.55;1800089;79;21111;-34
2021/11/08 07:34:17;;;;;;;17.35;13.28;;;;;;;7.93;70.75;99120.46;1794775;79;21030;-34
2021/11/08 07:36:44;;;;;;;20.65;13.80;;;;;;;7.97;70.01;99121.89;1794941;79;21017;-34
2021/11/08 07:39:12;;;;;;;19.62;13.30;;;;;;;7.96;70.22;99126.50;1780563;80;21040;-34
2021/11/08 07:41:39;;;;;;;16.35;11.70;;;;;;;7.96;70.50;99135.16;1775173;80;21079;-34
2021/11/08 07:44:09;;;;;;;;;;;;;;;7.98;70.13;99125.61;1755315;81;20956;-34
2021/11/08 07:46:35;;;;;;;16.32;12.58;;;;;;;7.99;70.20;99140.64;1756848;80;20137;-34
2021/11/08 07:49:02;;;;;;;17.62;13.00;;;;;;;7.88;70.42;99147.70;1763515;80;20964;-34
2021/11/08 07:51:29;;;;;;;15.93;11.68;;;;;;;7.89;70.61;99146.55;1763871;81;21502;-34
2021/11/08 07:53:56;;;;;;;15.23;11.75;;;;;;;7.90;70.50;99158.92;1763796;81;21012;-34
2021/11/08 07:56:22;;;;;;;18.07;12.70;;;;;;;7.95;70.69;99165.98;1763728;81;21130;-34
2021/11/08 07:58:49;;;;;;;19.70;13.38;;;;;;;7.96;70.72;99164.30;1762521;80;21521;-34
2021/11/08 08:01:17;;;;;;;17.05;12.35;;;;;;;7.97;70.79;99176.67;1764183;81;20992;-34
2021/11/08 08:03:45;;;;;;;16.50;11.30;;;;;;;7.98;70.60;99166.66;1764696;79;22258;-34
2021/11/08 08:06:12;;;;;;;18.27;11.57;;;;;;;8.02;70.85;99162.92;1764323;81;21099;-34
2021/11/08 08:08:39;;;;;;;17.02;11.65;;;;;;;8.10;70.53;99166.00;1765205;81;21137;-34
2021/11/08 08:11:06;;;;;;;18.37;11.50;;;;;;;8.17;70.42;99171.60;1762693;79;21491;-34
2021/11/08 08:13:34;;;;;;;15.38;10.85;;;;;;;8.21;69.65;99169.77;1761946;81;20974;-34
2021/11/08 08:16:04;;;;;;;17.80;12.47;;;;;;;8.22;69.53;99178.09;1766579;79;22213;-34
2021/11/08 08:18:32;;;;;;;14.80;10.70;;;;;;;8.22;69.66;99180.80;1763746;80;21650;-34
2021/11/08 08:20:59;;;;;;;17.25;11.63;;;;;;;8.24;69.47;99175.81;1762488;80;21172;-34
2021/11/08 08:23:26;;;;;;;16.48;11.35;;;;;;;8.28;69.37;99182.08;1775437;80;21456;-34
2021/11/08 08:25:52;;;;;;;18.17;12.40;;;;;;;8.35;69.42;99187.48;1783433;80;21008;-34
2021/11/08 08:28:19;;;;;;;15.90;11.45;;;;;;;8.41;69.55;99180.69;1783633;80;21021;-34
2021/11/08 08:30:46;;;;;;;15.83;11.63;;;;;;;8.47;68.98;99179.30;1782984;80;21013;-34
2021/11/08 08:33:14;;;;;;;13.83;10.53;;;;;;;8.56;69.13;99171.23;1776075;80;21534;-34
2021/11/08 08:35:41;;;;;;;14.15;10.40;;;;;;;8.75;68.63;99173.77;1783043;80;20964;-34
2021/11/08 08:38:14;;;;;;;15.25;11.35;;;;;;;8.98;68.14;99177.38;1782419;80;21008;-34
2021/11/08 08:40:40;;;;;;;15.88;11.20;;;;;;;9.21;66.92;99168.02;1782926;80;21665;-34
2021/11/08 08:43:08;;;;;;;15.15;10.98;;;;;;;9.37;65.80;99170.89;1783835;80;21031;-34
2021/11/08 08:45:36;;;;;;;13.83;10.28;;;;;;;9.50;65.85;99182.34;1783824;80;21960;-34
2021/11/08 08:48:06;;;;;;;13.30;10.15;;;;;;;9.61;64.89;99180.64;1783557;80;20956;-34
2021/11/08 08:50:32;;;;;;;13.62;10.18;;;;;;;9.78;64.91;99181.54;1783773;80;21624;-34
2021/11/08 08:52:59;;;;;;;14.98;10.13;;;;;;;9.90;63.50;99173.27;1783882;80;21075;-34
2021/11/08 08:55:25;;;;;;;14.40;10.32;;;;;;;9.90;62.87;99167.86;1783696;80;21047;-34
2021/11/08 08:57:54;;;;;;;15.08;10.30;;;;;;;9.91;63.48;99168.08;1783608;80;21956;-34
2021/11/08 09:00:22;;;;;;;13.25;9.88;;;;;;;9.92;63.25;99183.16;1783467;80;21012;-34
2021/11/08 09:02:52;;;;;;;15.03;10.63;;;;;;;9.93;63.37;99190.14;1783826;80;21015;-34
2021/11/08 09:05:18;;;;;;;;;;;;;;;9.98;63.63;99216.94;1786207;80;21502;-34
2021/11/08 09:07:46;;;;;;;15.23;9.53;;;;;;;10.04;62.74;99197.91;1783418;80;20171;-34
2021/11/08 09:10:12;;;;;;;13.30;9.73;;;;;;;10.01;63.83;99196.49;1783241;80;21058;-34
2021/11/08 09:12:41;;;;;;;14.53;10.48;;;;;;;10.09;62.87;99198.75;1783599;80;21609;-34
2021/11/08 09:15:09;;;;;;;12.45;9.28;;;;;;;10.14;63.09;99191.11;1783693;80;21765;-34
2021/11/08 09:17:36;;;;;;;10.88;8.65;;;;;;;10.25;62.38;99198.11;1783350;80;20997;-34
2021/11/08 09:20:05;;;;;;;11.95;7.90;;;;;;;10.33;62.10;99194.36;1783371;80;21081;-34
2021/11/08 09:22:31;;;;;;;10.85;8.00;;;;;;;10.34;60.21;99191.88;1783168;80;21039;-34
2021/11/08 09:24:58;;;;;;;11.20;7.10;;;;;;;10.35;59.94;99182.61;1783391;80;21045;-35
2021/11/08 09:27:24;;;;;;;8.90;6.30;;;;;;;10.40;59.17;99179.59;1783819;80;20968;-34
2021/11/08 09:29:51;;;;;;;10.78;6.65;;;;;;;10.54;58.65;99179.82;1783588;80;21668;-34
2021/11/08 09:32:17;;;;;;;10.53;7.00;;;;;;;10.72;57.76;99172.74;1783024;80;21041;-34
2021/11/08 09:34:47;;;;;;;8.83;5.50;;;;;;;10.84;57.15;99171.16;1783579;80;21244;-34
2021/11/08 09:37:17;;;;;;;9.03;6.12;;;;;;;10.94;56.39;99169.00;1783948;80;21076;-35
2021/11/08 09:39:45;;;;;;;11.53;6.30;;;;;;;11.07;56.07;99164.91;1784446;80;21528;-34
2021/11/08 09:42:15;;;;;;;7.75;5.53;;;;;;;11.22;55.73;99180.23;1783825;80;21050;-34
2021/11/08 09:44:43;;;;;;;9.25;5.53;;;;;;;11.34;54.83;99173.20;1785605;80;21005;-34
2021/11/08 09:47:09;;;;;;;9.13;5.53;;;;;;;11.43;53.67;99172.34;1786325;80;21067;-34
2021/11/08 09:49:39;;;;;;;9.75;5.70;;;;;;;11.44;52.37;99173.13;1786125;80;20926;-34
2021/11/08 09:52:06;;;;;;;8.40;5.05;;;;;;;11.35;53.06;99180.20;1786313;80;20987;-35
2021/11/08 09:54:40;;;;;;;12.45;5.33;;;;;;;11.22;53.27;99189.73;1786368;80;21480;-34
2021/11/08 09:57:04;;;;;;;7.47;4.28;;;;;;;11.05;53.44;99197.81;1785871;80;21005;-34
2021/11/08 09:59:32;;;;;;;9.08;4.50;;;;;;;10.83;52.46;99198.09;1766895;81;21933;-34
2021/11/08 10:02:00;;;;;;;10.50;5.00;;;;;;;10.67;52.50;99202.09;1799901;79;21035;-34
2021/11/08 10:04:27;;;;;;;7.62;4.15;;;;;;;10.55;52.32;99201.72;1766973;81;20971;-34
2021/11/08 10:06:54;;;;;;;6.95;4.15;;;;;;;10.52;52.95;99213.27;1799997;79;21011;-34
2021/11/08 10:09:22;;;;;;;8.00;4.37;;;;;;;10.54;53.40;99200.16;1766803;81;21055;-35
2021/11/08 10:11:50;;;;;;;7.22;4.35;;;;;;;10.57;52.61;99207.55;1800085;79;21069;-35
2021/11/08 10:14:17;;;;;;;8.65;4.33;;;;;;;10.62;53.20;99201.82;1766462;81;20976;-35
2021/11/08 10:16:46;;;;;;;6.72;4.25;;;;;;;10.68;53.09;99208.52;1799690;79;20983;-35
2021/11/08 10:19:21;;;;;;;9.08;4.33;;;;;;;10.70;52.87;99203.49;1783064;80;20980;-34
2021/11/08 10:21:49;;;;;;;5.60;3.40;;;;;;;10.75;52.78;99211.89;1785476;80;21072;-34
2021/11/08 10:24:21;;;;;;;7.05;3.75;;;;;;;10.74;52.14;99216.55;1816521;79;21185;-34
2021/11/08 10:26:49;;;;;;;6.90;3.55;;;;;;;10.67;51.25;99215.64;1785944;80;20934;-34
2021/11/08 10:29:18;;;;;;;7.00;3.98;;;;;;;10.61;52.41;99209.73;1816639;79;20925;-34
2021/11/08 10:31:54;;;;;;;6.00;4.17;;;;;;;10.57;52.39;99217.03;1786372;80;21091;-34
2021/11/08 10:34:23;;;;;;;6.20;3.70;;;;;;;10.53;52.41;99221.63;1815949;79;21016;-35
2021/11/08 10:37:06;;;;;;;8.10;4.10;;;;;;;10.38;52.70;99221.16;1794455;80;21120;-34
2021/11/08 10:39:37;;;;;;;8.28;4.25;;;;;;;10.38;52.70;99221.16;1794176;80;20948;-34
2021/11/08 10:42:05;;;;;;;8.20;3.65;;;;;;;10.31;53.32;99212.93;1813782;78;21080;-34
2021/11/08 10:44:33;;;;;;;7.05;4.10;;;;;;;10.29;53.41;99211.14;1794290;80;21000;-34
2021/11/08 10:47:09;;;;;;;8.53;4.33;;;;;;;10.27;53.37;99203.93;1794427;80;20968;-34
2021/11/08 10:49:39;;;;;;;9.08;4.65;;;;;;;10.26;53.24;99196.38;1813938;79;21756;-34
2021/11/08 10:52:06;;;;;;;7.97;4.00;;;;;;;10.23;53.58;99201.16;1794283;80;20929;-34
2021/11/08 10:54:37;;;;;;;9.93;4.28;;;;;;;10.22;53.74;99190.68;1794334;80;21067;-34
2021/11/08 10:57:07;;;;;;;9.70;4.00;;;;;;;10.20;53.33;99185.64;1814043;79;20909;-34
2021/11/08 10:59:46;;;;;;;6.00;3.95;;;;;;;10.21;53.72;99185.08;1794434;80;21036;-34
2021/11/08 11:02:16;;;;;;;8.28;4.30;;;;;;;10.23;53.97;99197.10;1794461;79;21820;-34
2021/11/08 11:04:50;;;;;;;7.77;4.23;;;;;;;10.25;53.96;99188.62;1814056;79;20964;-35
2021/11/08 11:07:25;;;;;;;7.55;3.98;;;;;;;10.28;53.87;99196.02;1794542;80;21036;-34
2021/11/08 11:10:09;;;;;;;5.97;3.67;;;;;;;10.28;54.00;99198.16;1794327;79;21032;-34
2021/11/08 11:12:37;;;;;;;7.83;3.72;;;;;;;10.30;53.40;99193.74;1813951;79;21044;-34
2021/11/08 11:15:14;;;;;;;7.25;3.33;;;;;;;10.29;52.88;99189.46;1794451;80;21107;-34
2021/11/08 11:17:55;;;;;;;9.40;4.00;;;;;;;10.30;52.54;99195.88;1798290;79;20968;-34
2021/11/08 11:20:21;;;;;;;6.55;3.37;;;;;;;10.32;52.61;99196.86;1803062;79;20933;-34
2021/11/08 11:23:09;;;;;;;;;;;;;;;10.32;52.59;99204.98;1807769;79;20985;-34
2021/11/08 11:25:37;;;;;;;5.22;3.05;;;;;;;10.34;52.83;99208.13;1826314;78;20161;-34
2021/11/08 11:28:07;;;;;;;8.65;3.60;;;;;;;10.26;52.73;99206.45;1827937;78;21115;-34
2021/11/08 11:30:40;;;;;;;4.40;2.80;;;;;;;10.28;52.56;99205.50;1793460;80;21491;-34
2021/11/08 11:33:11;;;;;;;4.58;2.80;;;;;;;10.31;51.46;99203.45;1826190;78;21138;-34
2021/11/08 11:35:49;;;;;;;8.90;3.22;;;;;;;10.32;51.55;99199.56;1789489;80;20997;-34
2021/11/08 11:38:20;;;;;;;4.83;3.22;;;;;;;10.31;52.09;99194.72;1821556;78;20917;-34
2021/11/08 11:41:00;;;;;;;4.67;2.95;;;;;;;10.33;51.84;99193.01;1787411;80;21141;-34
2021/11/08 11:43:38;;;;;;;5.78;2.95;;;;;;;10.33;51.60;99193.01;1821636;78;20913;-34
2021/11/08 11:46:08;;;;;;;7.22;3.58;;;;;;;10.35;51.50;99196.16;1820924;78;20956;-34
2021/11/08 11:48:36;;;;;;;;;;;;;;;10.36;51.19;99194.41;1790129;80;20984;-34
2021/11/08 11:51:04;;;;;;;5.40;2.67;;;;;;;10.12;51.37;99159.52;1821383;78;20596;-34
2021/11/08 11:53:33;;;;;;;7.85;2.60;;;;;;;10.26;51.48;99192.31;1821640;78;21534;-34
2021/11/08 11:55:59;;;;;;;4.50;2.62;;;;;;;10.31;51.74;99187.19;1787202;80;21539;-34
2021/11/08 11:58:26;;;;;;;7.10;3.25;;;;;;;10.36;51.48;99189.59;1821369;78;21039;-34
2021/11/08 12:00:58;;;;;;;7.85;3.12;;;;;;;10.38;51.35;99197.56;1787492;80;21036;-34
2021/11/08 12:03:22;;;;;;;5.50;2.80;;;;;;;10.43;51.26;99210.03;1821067;78;21021;-34
2021/11/08 12:05:54;;;;;;;6.65;3.35;;;;;;;10.48;51.21;99203.52;1787259;80;21092;-34
2021/11/08 12:08:18;;;;;;;6.47;3.00;;;;;;;10.46;51.14;99208.72;1764789;78;21015;-34
2021/11/08 12:10:48;;;;;;;3.98;2.33;;;;;;;10.46;51.46;99216.06;1787278;80;21043;-34
2021/11/08 12:13:17;;;;;;;5.20;2.35;;;;;;;10.46;50.10;99217.42;1821277;78;21107;-34
2021/11/08 12:15:44;;;;;;;2.80;1.50;;;;;;;10.45;49.89;99215.87;1787765;80;20973;-34
2021/11/08 12:18:15;;;;;;;4.28;2.08;;;;;;;10.43;49.36;99222.22;1802511;78;21124;-34
2021/11/08 12:20:52;;;;;;;5.42;2.02;;;;;;;10.41;49.09;99220.43;1821636;78;20937;-34
2021/11/08 12:23:23;;;;;;;5.28;2.10;;;;;;;10.37;49.37;99228.51;1821402;78;21016;-34
2021/11/08 12:25:51;;;;;;;3.58;2.25;;;;;;;10.37;49.85;99233.92;1824619;78;21567;-34
2021/11/08 12:28:27;;;;;;;4.55;2.47;;;;;;;10.37;49.78;99227.72;1824581;78;21041;-34
2021/11/08 12:31:03;;;;;;;4.83;2.10;;;;;;;10.39;50.01;99229.52;1821393;78;22364;-34
2021/11/08 12:33:37;;;;;;;4.42;2.12;;;;;;;10.40;50.32;99233.80;1824260;78;21005;-34
2021/11/08 12:36:15;;;;;;;4.47;2.50;;;;;;;10.41;50.39;99239.40;1826722;78;21264;-34
2021/11/08 12:38:46;;;;;;;6.45;2.50;;;;;;;10.40;50.54;99241.92;1828284;78;20967;-34
2021/11/08 12:41:18;;;;;;;8.28;2.62;;;;;;;10.39;50.67;99247.13;1825157;78;21573;-34
2021/11/08 12:43:56;;;;;;;5.15;2.60;;;;;;;10.33;51.09;99237.72;1828050;78;21111;-34
2021/11/08 12:46:23;;;;;;;5.47;2.60;;;;;;;10.29;51.32;99239.59;1827811;78;20991;-34
2021/11/08 12:48:51;;;;;;;6.83;2.90;;;;;;;10.26;51.58;99245.73;1827979;78;21039;-34
2021/11/08 12:51:22;;;;;;;7.17;3.58;;;;;;;10.25;51.81;99248.23;1828013;78;21014;-34
2021/11/08 12:54:02;;;;;;;6.78;2.67;;;;;;;10.24;51.71;99238.53;1827855;78;21003;-34
2021/11/08 12:56:34;;;;;;;5.45;2.77;;;;;;;10.23;51.81;99254.56;1800357;78;21137;-34
2021/11/08 12:59:02;;;;;;;8.23;2.85;;;;;;;10.19;51.99;99255.86;1827754;78;21561;-34
2021/11/08 13:01:44;;;;;;;11.20;3.52;;;;;;;10.17;52.24;99258.13;1774927;78;21019;-34
2021/11/08 13:04:14;;;;;;;8.08;3.37;;;;;;;10.17;52.29;99262.77;1827774;78;21241;-34
2021/11/08 13:06:44;;;;;;;8.13;3.40;;;;;;;10.12;52.60;99258.99;1828102;78;21021;-34
2021/11/08 13:09:27;;;;;;;7.15;3.02;;;;;;;10.11;52.89;99266.90;1827773;78;21126;-34
2021/11/08 13:11:55;;;;;;;10.23;3.90;;;;;;;10.09;52.95;99271.88;1826357;78;20929;-34
2021/11/08 13:14:29;;;;;;;13.53;5.05;;;;;;;10.09;53.51;99274.59;1827781;78;21043;-34
2021/11/08 13:17:07;;;;;;;10.03;5.05;;;;;;;10.06;53.92;99280.73;1827686;78;21040;-34
2021/11/08 13:19:45;;;;;;;9.48;4.85;;;;;;;10.01;53.83;99286.66;1792389;80;20921;-34
2021/11/08 13:22:33;;;;;;;7.72;3.83;;;;;;;9.96;54.04;99295.06;1827522;78;22338;-34